createdAt,value
2023-04-01T00:00:03.222Z,75.40
2023-04-01T00:02:33.788Z,75.54
2023-04-01T00:05:02.637Z,75.67
2023-04-01T00:07:30.640Z,75.73
2023-04-01T00:09:58.608Z,75.80
2023-04-01T00:12:26.345Z,75.80
2023-04-01T00:14:54.045Z,75.84
2023-04-01T00:17:22.656Z,75.87
2023-04-01T00:19:50.360Z,76.06
2023-04-01T00:22:17.984Z,76.04
2023-04-01T00:24:45.569Z,76.02
2023-04-01T00:27:13.148Z,75.89
2023-04-01T00:29:41.235Z,75.88
2023-04-01T00:32:08.780Z,76.07
2023-04-01T00:34:36.425Z,76.24
2023-04-01T00:37:04.200Z,75.88
2023-04-01T00:39:32.345Z,75.81
2023-04-01T00:41:59.932Z,75.85
2023-04-01T00:44:27.602Z,75.86
2023-04-01T00:46:55.354Z,75.90
2023-04-01T00:49:22.930Z,75.97
2023-04-01T00:51:51.140Z,75.99
2023-04-01T00:54:18.788Z,76.00
2023-04-01T00:56:48.959Z,76.10
2023-04-01T00:59:16.655Z,76.09
2023-04-01T01:01:44.621Z,76.20
2023-04-01T01:04:12.149Z,76.21
2023-04-01T01:06:41.874Z,76.19
2023-04-01T01:09:09.513Z,76.19
2023-04-01T01:11:42.764Z,76.18
2023-04-01T01:14:15.068Z,76.18
2023-04-01T01:16:42.768Z,76.09
2023-04-01T01:19:10.634Z,76.08
2023-04-01T01:21:38.708Z,76.09
2023-04-01T01:24:06.233Z,76.18
2023-04-01T01:26:33.810Z,76.20
2023-04-01T01:29:01.600Z,76.14
2023-04-01T01:31:42.435Z,76.10
2023-04-01T01:34:09.994Z,76.10
2023-04-01T01:36:40.040Z,76.10
2023-04-01T01:39:07.743Z,76.10
2023-04-01T01:41:35.358Z,76.21
2023-04-01T01:44:02.866Z,76.36
2023-04-01T01:46:30.654Z,76.46
2023-04-01T01:48:58.314Z,76.50
2023-04-01T01:51:25.872Z,76.51
2023-04-01T01:53:53.609Z,76.61
2023-04-01T01:56:22.892Z,76.61
2023-04-01T01:58:50.415Z,76.66
2023-04-01T02:01:18.032Z,76.72
2023-04-01T02:03:47.002Z,76.74
2023-04-01T02:06:14.504Z,76.86
2023-04-01T02:08:42.434Z,76.92
2023-04-01T02:11:10.871Z,77.15
2023-04-01T02:13:40.835Z,77.21
2023-04-01T02:16:11.174Z,77.31
2023-04-01T02:18:39.238Z,77.45
2023-04-01T02:21:07.008Z,77.51
2023-04-01T02:23:34.673Z,77.56
2023-04-01T02:26:02.296Z,77.55
2023-04-01T02:28:29.829Z,77.43
2023-04-01T02:30:59.138Z,77.36
2023-04-01T02:33:27.112Z,77.13
2023-04-01T02:35:56.368Z,76.94
2023-04-01T02:38:24.390Z,76.93
2023-04-01T02:40:51.998Z,76.89
2023-04-01T02:43:20.918Z,76.90
2023-04-01T02:49:45.106Z,76.69
2023-04-01T02:52:12.614Z,76.64
2023-04-01T02:54:40.505Z,76.66
2023-04-01T02:57:08.068Z,76.69
2023-04-01T02:59:35.624Z,76.69
2023-04-01T03:02:03.196Z,76.70
2023-04-01T03:04:30.886Z,76.67
2023-04-01T03:06:58.401Z,76.69
2023-04-01T03:09:26.056Z,76.70
2023-04-01T03:11:53.566Z,76.71
2023-04-01T03:14:21.191Z,76.69
2023-04-01T03:16:48.708Z,76.63
2023-04-01T03:19:16.449Z,76.61
2023-04-01T03:21:44.009Z,76.60
2023-04-01T03:24:11.636Z,76.59
2023-04-01T03:26:39.229Z,76.62
2023-04-01T03:29:06.926Z,76.58
2023-04-01T03:31:35.642Z,76.50
2023-04-01T03:34:03.349Z,76.47
2023-04-01T03:36:30.870Z,76.37
2023-04-01T03:38:58.417Z,76.39
2023-04-01T03:41:26.520Z,76.24
2023-04-01T03:43:54.020Z,76.10
2023-04-01T03:46:21.747Z,76.11
2023-04-01T03:48:49.443Z,76.02
2023-04-01T03:51:17.120Z,75.91
2023-04-01T03:53:44.750Z,75.78
2023-04-01T03:56:12.415Z,75.84
2023-04-01T03:58:40.086Z,75.91
2023-04-01T04:01:07.693Z,75.94
2023-04-01T04:03:35.414Z,76.00
2023-04-01T04:06:03.047Z,75.96
2023-04-01T04:08:30.705Z,75.97
2023-04-01T04:10:58.287Z,76.01
2023-04-01T04:13:25.837Z,75.98
2023-04-01T04:15:53.391Z,75.80
2023-04-01T04:18:20.950Z,75.70
2023-04-01T04:20:51.191Z,75.73
2023-04-01T04:23:18.695Z,75.65
2023-04-01T04:25:46.418Z,75.78
2023-04-01T04:28:13.893Z,75.81
2023-04-01T04:30:41.361Z,75.76
2023-04-01T04:33:09.070Z,75.72
2023-04-01T04:35:36.604Z,75.73
2023-04-01T04:38:04.084Z,75.78
2023-04-01T04:40:31.770Z,75.77
2023-04-01T04:42:59.305Z,75.72
2023-04-01T04:45:26.789Z,75.65
2023-04-01T04:47:54.478Z,75.70
2023-04-01T04:50:22.168Z,75.70
2023-04-01T04:52:49.938Z,75.63
2023-04-01T04:55:17.443Z,75.54
2023-04-01T04:57:44.995Z,75.39
2023-04-01T05:00:12.589Z,75.43
2023-04-01T05:02:40.284Z,75.45
2023-04-01T05:05:08.047Z,75.43
2023-04-01T05:07:35.568Z,75.44
2023-04-01T05:10:03.132Z,75.36
2023-04-01T05:12:30.845Z,75.37
2023-04-01T05:14:58.478Z,75.32
2023-04-01T05:17:26.253Z,75.29
2023-04-01T05:19:53.811Z,75.33
2023-04-01T05:22:21.301Z,75.55
2023-04-01T05:24:48.809Z,75.84
2023-04-01T05:27:16.334Z,76.06
2023-04-01T05:29:43.817Z,76.24
2023-04-01T05:32:11.492Z,76.34
2023-04-01T05:34:38.989Z,76.34
2023-04-01T05:37:08.409Z,76.56
2023-04-01T05:39:36.209Z,76.59
2023-04-01T05:42:03.684Z,76.71
2023-04-01T05:44:31.150Z,76.65
2023-04-01T05:46:58.760Z,76.59
2023-04-01T05:49:27.697Z,76.55
2023-04-01T05:51:56.504Z,76.68
2023-04-01T05:54:24.315Z,76.65
2023-04-01T05:56:51.788Z,76.52
2023-04-01T05:59:19.343Z,76.41
2023-04-01T06:01:46.872Z,76.25
2023-04-01T06:04:14.363Z,76.16
2023-04-01T06:06:41.943Z,76.11
2023-04-01T06:09:09.507Z,75.90
2023-04-01T06:11:37.173Z,75.62
2023-04-01T06:14:06.560Z,75.52
2023-04-01T06:16:34.169Z,75.54
2023-04-01T06:19:01.768Z,75.36
2023-04-01T06:21:29.285Z,74.87
2023-04-01T06:23:56.973Z,74.59
2023-04-01T06:26:24.534Z,74.62
2023-04-01T06:28:52.211Z,74.65
2023-04-01T06:31:19.839Z,74.23
2023-04-01T06:33:47.580Z,74.31
2023-04-01T06:36:15.113Z,74.22
2023-04-01T06:38:42.681Z,73.86
2023-04-01T06:41:10.807Z,73.23
2023-04-01T06:43:38.360Z,72.88
2023-04-01T06:46:05.912Z,72.88
2023-04-01T06:48:33.518Z,73.29
2023-04-01T06:51:01.235Z,73.51
2023-04-01T06:53:28.781Z,73.47
2023-04-01T06:55:56.381Z,73.00
2023-04-01T06:58:24.007Z,73.33
2023-04-01T07:00:52.038Z,71.64
2023-04-01T07:03:19.684Z,70.78
2023-04-01T07:05:47.333Z,70.68
2023-04-01T07:08:14.886Z,70.54
2023-04-01T07:10:43.929Z,70.28
2023-04-01T07:13:11.479Z,70.10
2023-04-01T07:15:39.122Z,69.27
2023-04-01T07:18:06.635Z,70.64
2023-04-01T07:20:34.222Z,69.08
2023-04-01T07:23:01.909Z,68.63
2023-04-01T07:25:29.448Z,68.85
2023-04-01T07:27:57.090Z,68.63
2023-04-01T07:30:24.747Z,69.07
2023-04-01T07:32:52.413Z,69.47
2023-04-01T07:35:20.025Z,69.77
2023-04-01T07:37:47.617Z,69.34
2023-04-01T07:40:15.168Z,69.17
2023-04-01T07:42:42.662Z,68.73
2023-04-01T07:45:10.410Z,69.09
2023-04-01T07:47:37.917Z,69.10
2023-04-01T07:50:05.511Z,69.81
2023-04-01T07:52:33.097Z,70.24
2023-04-01T07:55:00.737Z,69.97
2023-04-01T07:57:28.416Z,70.81
2023-04-01T07:59:56.230Z,72.29
2023-04-01T08:02:23.860Z,72.32
2023-04-01T08:04:51.542Z,72.35
2023-04-01T08:07:19.260Z,72.30
2023-04-01T08:09:46.824Z,72.57
2023-04-01T08:12:14.329Z,73.02
2023-04-01T08:14:41.877Z,73.13
2023-04-01T08:17:09.701Z,73.29
2023-04-01T08:19:37.235Z,72.54
2023-04-01T08:22:05.686Z,72.43
2023-04-01T08:24:44.338Z,72.57
2023-04-01T08:27:14.420Z,72.10
2023-04-01T08:29:41.905Z,70.13
2023-04-01T08:32:09.727Z,70.71
2023-04-01T08:34:37.360Z,69.47
2023-04-01T08:37:04.868Z,68.39
2023-04-01T08:39:32.448Z,68.59
2023-04-01T08:41:59.942Z,68.55
2023-04-01T08:44:27.425Z,66.80
2023-04-01T08:46:54.918Z,65.43
2023-04-01T08:49:22.413Z,65.43
2023-04-01T08:51:49.999Z,65.64
2023-04-01T08:54:17.735Z,65.13
2023-04-01T08:56:45.533Z,64.24
2023-04-01T08:59:13.221Z,64.93
2023-04-01T09:01:40.758Z,65.30
2023-04-01T09:04:08.468Z,65.19
2023-04-01T09:06:36.068Z,65.78
2023-04-01T09:09:03.570Z,65.26
2023-04-01T09:11:31.816Z,64.65
2023-04-01T09:13:59.335Z,65.04
2023-04-01T09:16:26.977Z,65.64
2023-04-01T09:18:54.626Z,65.67
2023-04-01T09:21:22.098Z,65.20
2023-04-01T09:23:49.735Z,65.76
2023-04-01T09:26:17.239Z,65.57
2023-04-01T09:28:44.794Z,64.14
2023-04-01T09:31:12.348Z,64.37
2023-04-01T09:33:39.989Z,63.85
2023-04-01T09:36:07.637Z,64.37
2023-04-01T09:38:35.137Z,64.54
2023-04-01T09:41:02.715Z,64.66
2023-04-01T09:43:30.331Z,63.71
2023-04-01T09:45:58.535Z,63.40
2023-04-01T09:48:26.277Z,62.86
2023-04-01T09:50:54.622Z,62.26
2023-04-01T09:53:22.313Z,62.81
2023-04-01T09:55:51.171Z,61.82
2023-04-01T09:58:18.700Z,61.98
2023-04-01T10:00:46.475Z,61.00
2023-04-01T10:03:14.020Z,60.32
2023-04-01T10:05:41.566Z,60.48
2023-04-01T10:08:09.106Z,61.34
2023-04-01T10:10:37.092Z,60.85
2023-04-01T10:13:04.618Z,60.88
2023-04-01T10:15:32.822Z,60.67
2023-04-01T10:18:00.733Z,60.44
2023-04-01T10:20:28.370Z,61.29
2023-04-01T10:22:56.373Z,60.94
2023-04-01T10:25:23.872Z,61.12
2023-04-01T10:27:51.368Z,60.69
2023-04-01T10:30:19.003Z,60.56
2023-04-01T10:32:46.958Z,60.73
2023-04-01T10:35:14.478Z,60.56
2023-04-01T10:37:42.342Z,60.87
2023-04-01T10:40:10.086Z,60.14
2023-04-01T10:42:37.659Z,60.87
2023-04-01T10:45:05.314Z,60.64
2023-04-01T10:47:32.914Z,60.94
2023-04-01T10:50:00.763Z,60.61
2023-04-01T10:52:28.325Z,60.33
2023-04-01T10:54:55.952Z,60.76
2023-04-01T10:57:23.447Z,60.60
2023-04-01T10:59:51.219Z,59.86
2023-04-01T11:02:19.205Z,60.59
2023-04-01T11:04:47.154Z,60.71
2023-04-01T11:07:14.637Z,61.53
2023-04-01T11:09:42.176Z,62.02
2023-04-01T11:12:09.712Z,60.42
2023-04-01T11:14:37.192Z,60.83
2023-04-01T11:17:04.738Z,61.22
2023-04-01T11:19:32.239Z,62.74
2023-04-01T11:21:59.736Z,63.58
2023-04-01T11:24:27.400Z,64.33
2023-04-01T11:26:54.953Z,63.74
2023-04-01T11:29:22.478Z,63.78
2023-04-01T11:31:50.189Z,63.60
2023-04-01T11:34:17.760Z,62.51
2023-04-01T11:36:45.342Z,62.02
2023-04-01T11:39:12.929Z,62.30
2023-04-01T11:41:40.489Z,62.17
2023-04-01T11:44:08.023Z,61.98
2023-04-01T11:46:35.774Z,61.89
2023-04-01T11:49:03.310Z,61.42
2023-04-01T11:51:30.939Z,60.85
2023-04-01T11:53:58.480Z,60.82
2023-04-01T11:56:26.289Z,60.39
2023-04-01T11:58:53.871Z,60.57
2023-04-01T12:01:21.567Z,60.11
2023-04-01T12:03:49.359Z,60.50
2023-04-01T12:06:17.033Z,60.73
2023-04-01T12:08:44.532Z,60.85
2023-04-01T12:11:16.640Z,61.49
2023-04-01T12:13:46.724Z,61.10
2023-04-01T12:16:14.287Z,60.77
2023-04-01T12:18:41.834Z,60.77
2023-04-01T12:21:09.378Z,61.48
2023-04-01T12:23:37.023Z,61.46
2023-04-01T12:26:04.477Z,61.83
2023-04-01T12:28:32.565Z,62.18
2023-04-01T12:31:00.103Z,62.19
2023-04-01T12:33:27.686Z,62.12
2023-04-01T12:35:55.842Z,62.86
2023-04-01T12:38:23.359Z,62.61
2023-04-01T12:40:51.037Z,62.70
2023-04-01T12:43:18.586Z,62.94
2023-04-01T12:45:46.407Z,62.48
2023-04-01T12:48:14.860Z,62.59
2023-04-01T12:50:42.535Z,63.06
2023-04-01T12:53:10.227Z,63.50
2023-04-01T12:55:37.761Z,63.43
2023-04-01T12:58:05.476Z,63.09
2023-04-01T13:00:33.039Z,62.90
2023-04-01T13:03:00.747Z,62.73
2023-04-01T13:05:28.526Z,62.67
2023-04-01T13:07:56.276Z,62.14
2023-04-01T13:10:23.761Z,61.33
2023-04-01T13:12:51.541Z,61.37
2023-04-01T13:15:19.066Z,61.38
2023-04-01T13:17:46.611Z,61.82
2023-04-01T13:20:14.170Z,61.96
2023-04-01T13:22:41.713Z,62.64
2023-04-01T13:25:09.268Z,63.16
2023-04-01T13:27:36.956Z,63.48
2023-04-01T13:30:04.551Z,63.19
2023-04-01T13:32:43.361Z,63.51
2023-04-01T13:35:11.652Z,63.75
2023-04-01T13:37:39.140Z,64.22
2023-04-01T13:40:06.705Z,63.49
2023-04-01T13:42:34.300Z,63.77
2023-04-01T13:45:01.867Z,63.15
2023-04-01T13:47:29.482Z,63.13
2023-04-01T13:49:57.072Z,63.07
2023-04-01T13:52:26.411Z,63.59
2023-04-01T13:54:53.981Z,63.68
2023-04-01T13:57:21.555Z,63.56
2023-04-01T13:59:49.242Z,63.64
2023-04-01T14:02:16.739Z,63.83
2023-04-01T14:04:47.567Z,63.81
2023-04-01T14:07:15.271Z,63.65
2023-04-01T14:09:42.783Z,63.50
2023-04-01T14:12:10.424Z,63.34
2023-04-01T14:14:37.944Z,62.69
2023-04-01T14:17:05.719Z,61.86
2023-04-01T14:19:33.231Z,61.94
2023-04-01T14:22:00.947Z,62.98
2023-04-01T14:24:28.448Z,63.79
2023-04-01T14:26:56.030Z,64.63
2023-04-01T14:29:23.516Z,64.84
2023-04-01T14:31:51.044Z,64.88
2023-04-01T14:34:18.610Z,64.99
2023-04-01T14:36:46.472Z,65.31
2023-04-01T14:39:13.945Z,65.50
2023-04-01T14:41:41.471Z,66.07
2023-04-01T14:44:08.921Z,65.70
2023-04-01T14:46:36.471Z,65.30
2023-04-01T14:49:04.034Z,65.10
2023-04-01T14:51:31.649Z,64.92
2023-04-01T14:53:59.244Z,64.97
2023-04-01T14:56:26.737Z,64.68
2023-04-01T14:58:54.246Z,64.65
2023-04-01T15:01:21.727Z,64.89
2023-04-01T15:03:49.332Z,64.74
2023-04-01T15:06:16.822Z,64.63
2023-04-01T15:08:44.470Z,64.67
2023-04-01T15:11:11.981Z,64.41
2023-04-01T15:13:39.478Z,64.62
2023-04-01T15:16:07.010Z,64.68
2023-04-01T15:18:35.195Z,64.87
2023-04-01T15:21:02.723Z,65.49
2023-04-01T15:23:30.239Z,66.06
2023-04-01T15:25:57.762Z,66.12
2023-04-01T15:28:25.437Z,65.65
2023-04-01T15:30:52.921Z,66.43
2023-04-01T15:33:20.428Z,66.57
2023-04-01T15:35:48.039Z,66.19
2023-04-01T15:38:16.398Z,66.23
2023-04-01T15:40:44.282Z,65.57
2023-04-01T15:43:11.845Z,64.81
2023-04-01T15:45:39.371Z,65.14
2023-04-01T15:48:07.055Z,65.26
2023-04-01T15:50:34.902Z,65.38
2023-04-01T15:53:02.396Z,65.74
2023-04-01T15:55:29.912Z,65.97
2023-04-01T15:57:57.387Z,66.29
2023-04-01T16:00:24.965Z,66.21
2023-04-01T16:02:52.652Z,66.38
2023-04-01T16:05:20.484Z,66.64
2023-04-01T16:07:48.121Z,67.00
2023-04-01T16:10:16.077Z,68.00
2023-04-01T16:12:43.602Z,69.90
2023-04-01T16:15:11.385Z,71.46
2023-04-01T16:17:38.967Z,72.38
2023-04-01T16:20:06.508Z,72.24
2023-04-01T16:22:34.014Z,72.36
2023-04-01T16:25:01.742Z,72.28
2023-04-01T16:27:29.327Z,72.60
2023-04-01T16:29:56.814Z,72.77
2023-04-01T16:32:24.781Z,72.91
2023-04-01T16:34:52.340Z,73.04
2023-04-01T16:37:19.844Z,73.12
2023-04-01T16:39:47.504Z,72.94
2023-04-01T16:42:15.682Z,72.80
2023-04-01T16:44:43.172Z,72.86
2023-04-01T16:47:10.885Z,72.84
2023-04-01T16:49:38.382Z,72.82
2023-04-01T16:52:06.892Z,72.79
2023-04-01T16:54:34.537Z,72.70
2023-04-01T16:57:02.118Z,72.77
2023-04-01T16:59:29.647Z,72.81
2023-04-01T17:01:57.148Z,72.78
2023-04-01T17:04:24.652Z,72.87
2023-04-01T17:06:52.199Z,73.06
2023-04-01T17:09:19.717Z,73.08
2023-04-01T17:11:47.412Z,73.00
2023-04-01T17:14:14.949Z,73.00
2023-04-01T17:16:42.504Z,73.09
2023-04-01T17:19:10.047Z,73.02
2023-04-01T17:21:37.516Z,73.14
2023-04-01T17:24:05.068Z,73.28
2023-04-01T17:26:32.528Z,73.55
2023-04-01T17:29:00.043Z,73.81
2023-04-01T17:31:27.699Z,74.06
2023-04-01T17:33:55.208Z,74.68
2023-04-01T17:36:22.891Z,75.21
2023-04-01T17:38:50.665Z,76.06
2023-04-01T17:41:18.485Z,76.69
2023-04-01T17:43:45.974Z,76.55
2023-04-01T17:46:13.497Z,77.15
2023-04-01T17:48:41.058Z,77.43
2023-04-01T17:51:08.605Z,77.50
2023-04-01T17:53:36.371Z,77.34
2023-04-01T17:56:03.876Z,77.19
2023-04-01T17:58:31.391Z,77.28
2023-04-01T18:00:59.855Z,77.66
2023-04-01T18:03:27.758Z,77.71
2023-04-01T18:05:55.432Z,77.79
2023-04-01T18:08:22.911Z,77.66
2023-04-01T18:10:50.505Z,77.82
2023-04-01T18:13:18.120Z,77.79
2023-04-01T18:15:46.191Z,77.73
2023-04-01T18:18:13.822Z,77.44
2023-04-01T18:20:41.326Z,77.39
2023-04-01T18:23:08.837Z,77.00
2023-04-01T18:25:37.874Z,76.74
2023-04-01T18:28:05.511Z,76.35
2023-04-01T18:30:33.491Z,76.11
2023-04-01T18:33:01.271Z,75.96
2023-04-01T18:35:29.489Z,75.88
2023-04-01T18:37:57.043Z,75.99
2023-04-01T18:40:26.393Z,75.89
2023-04-01T18:42:54.029Z,75.81
2023-04-01T18:45:21.611Z,75.84
2023-04-01T18:47:51.213Z,75.98
2023-04-01T18:50:18.770Z,76.01
2023-04-01T18:52:46.749Z,76.06
2023-04-01T18:55:14.446Z,76.23
2023-04-01T18:57:42.101Z,76.76
2023-04-01T19:00:09.673Z,76.90
2023-04-01T19:02:37.318Z,76.91
2023-04-01T19:05:05.071Z,76.85
2023-04-01T19:07:32.688Z,76.89
2023-04-01T19:10:00.299Z,77.03
2023-04-01T19:12:27.951Z,77.03
2023-04-01T19:14:55.833Z,77.05
2023-04-01T19:17:23.358Z,77.07
2023-04-01T19:19:51.165Z,77.00
2023-04-01T19:22:18.722Z,77.03
2023-04-01T19:24:46.307Z,77.15
2023-04-01T19:27:13.829Z,76.98
2023-04-01T19:29:41.491Z,76.91
2023-04-01T19:32:09.050Z,76.89
2023-04-01T19:34:36.586Z,76.84
2023-04-01T19:37:04.436Z,76.71
2023-04-01T19:39:32.016Z,76.62
2023-04-01T19:41:59.660Z,76.52
2023-04-01T19:44:27.302Z,76.41
2023-04-01T19:46:54.944Z,76.29
2023-04-01T19:49:22.731Z,76.15
2023-04-01T19:51:51.163Z,76.13
2023-04-01T19:54:18.709Z,76.10
2023-04-01T19:56:46.228Z,76.15
2023-04-01T19:59:13.837Z,75.99
2023-04-01T20:01:44.869Z,76.06
2023-04-01T20:04:13.634Z,76.54
2023-04-01T20:06:41.207Z,77.29
2023-04-01T20:09:08.825Z,78.44
2023-04-01T20:11:36.668Z,78.95
2023-04-01T20:14:04.194Z,79.39
2023-04-01T20:16:31.846Z,79.76
2023-04-01T20:18:59.421Z,79.96
2023-04-01T20:21:27.425Z,79.89
2023-04-01T20:23:56.404Z,79.83
2023-04-01T20:26:23.941Z,79.74
2023-04-01T20:28:51.629Z,79.81
2023-04-01T20:31:21.516Z,79.79
2023-04-01T20:33:53.049Z,79.95
2023-04-01T20:36:20.747Z,79.84
2023-04-01T20:38:48.362Z,79.83
2023-04-01T20:41:16.017Z,79.76
2023-04-01T20:43:43.699Z,79.90
2023-04-01T20:46:11.223Z,79.91
2023-04-01T20:48:38.921Z,79.84
2023-04-01T20:51:06.728Z,79.83
2023-04-01T20:53:36.429Z,79.94
2023-04-01T20:56:04.036Z,80.01
2023-04-01T20:58:31.609Z,80.12
2023-04-01T21:00:59.235Z,80.56
2023-04-01T21:03:26.889Z,80.92
2023-04-01T21:05:54.339Z,81.44
2023-04-01T21:08:21.815Z,81.66
2023-04-01T21:10:49.359Z,82.02
2023-04-01T21:13:16.849Z,82.26
2023-04-01T21:15:44.336Z,82.48
2023-04-01T21:18:12.067Z,82.53
2023-04-01T21:20:39.649Z,82.75
2023-04-01T21:23:07.141Z,83.15
2023-04-01T21:25:34.800Z,83.10
2023-04-01T21:28:02.432Z,82.92
2023-04-01T21:30:29.938Z,83.09
2023-04-01T21:32:57.498Z,83.42
2023-04-01T21:35:24.972Z,83.65
2023-04-01T21:37:52.427Z,83.74
2023-04-01T21:40:19.991Z,83.80
2023-04-01T21:42:47.459Z,83.68
2023-04-01T21:45:14.925Z,83.57
2023-04-01T21:47:42.533Z,83.58
2023-04-01T21:50:10.095Z,83.64
2023-04-01T21:52:37.572Z,83.88
2023-04-01T21:55:05.506Z,83.86
2023-04-01T21:57:33.816Z,83.79
2023-04-01T22:00:02.699Z,83.58
2023-04-01T22:02:30.348Z,83.42
2023-04-01T22:04:59.862Z,83.23
2023-04-01T22:07:27.387Z,83.29
2023-04-01T22:09:54.925Z,83.22
2023-04-01T22:12:25.210Z,83.23
2023-04-01T22:14:52.866Z,83.21
2023-04-01T22:17:20.603Z,83.35
2023-04-01T22:19:51.822Z,83.30
2023-04-01T22:22:19.362Z,83.29
2023-04-01T22:24:46.889Z,83.23
2023-04-01T22:27:14.383Z,83.21
2023-04-01T22:29:43.079Z,83.20
2023-04-01T22:32:11.360Z,83.30
2023-04-01T22:34:38.890Z,83.22
2023-04-01T22:37:06.350Z,83.21
2023-04-01T22:39:33.874Z,83.18
2023-04-01T22:42:01.732Z,83.18
2023-04-01T22:44:29.212Z,83.06
2023-04-01T22:46:58.280Z,83.15
2023-04-01T22:49:25.795Z,83.20
2023-04-01T22:51:53.308Z,83.25
2023-04-01T22:54:21.004Z,83.21
2023-04-01T22:56:48.545Z,83.10
2023-04-01T22:59:16.502Z,83.02
2023-04-01T23:01:46.599Z,82.90
2023-04-01T23:04:14.693Z,82.92
2023-04-01T23:06:42.409Z,83.00
2023-04-01T23:09:10.090Z,82.98
2023-04-01T23:11:37.820Z,83.07
2023-04-01T23:14:06.085Z,83.13
2023-04-01T23:16:33.602Z,83.20
2023-04-01T23:19:01.121Z,83.21
2023-04-01T23:21:28.752Z,83.27
2023-04-01T23:23:56.453Z,83.36
2023-04-01T23:26:24.008Z,83.40
2023-04-01T23:28:51.716Z,83.46
2023-04-01T23:31:19.248Z,83.61
2023-04-01T23:33:46.797Z,83.70
2023-04-01T23:36:14.310Z,83.80
2023-04-01T23:38:44.981Z,83.89
2023-04-01T23:41:12.472Z,83.98
2023-04-01T23:43:39.966Z,84.01
2023-04-01T23:46:08.548Z,84.10
2023-04-01T23:48:36.278Z,84.24
2023-04-01T23:51:03.821Z,84.30
2023-04-01T23:53:31.715Z,84.31
2023-04-01T23:55:59.250Z,84.29
2023-04-01T23:58:29.806Z,84.37
